Flight Track Log - Related Links

Times and Time Zones

All times are in EDT time to prevent confusion due to time zone crossing. See the BER6567 flight status page for this flight to view local times or setup timezone preferences in your user account.

Time Position Orientation Groundspeed Altitude Reporting Facility
EDT Latitude Longitude Course Direction KTS MPH feet Rate Location/Type
Tue 03:37:00 PM 51.5686 11.3249 231° Southwest  Level Estimated
Tue 03:38:00 PM 51.4966 11.1880 230° Southwest  Level Estimated
Tue 03:39:00 PM 51.4244 11.0516 230° Southwest  Level Estimated
Tue 03:40:00 PM 51.3520 10.9156 230° Southwest  Level Estimated
Tue 03:41:00 PM 51.2795 10.7800 230° Southwest  Level Estimated
Tue 03:42:00 PM 51.2069 10.6448 229° Southwest  Level Estimated
Tue 03:43:00 PM 51.1341 10.5100 229° Southwest  Level Estimated
Tue 03:44:00 PM 51.0611 10.3757 229° Southwest  Level Estimated
Tue 03:45:00 PM 50.9880 10.2418 229° Southwest  Level Estimated
Tue 03:46:00 PM 50.9147 10.1083 229° Southwest  Level Estimated
Tue 03:47:00 PM 50.8413 9.9753 229° Southwest  Level Estimated
Tue 03:48:00 PM 50.7677 9.8426 229° Southwest  Level Estimated
Tue 03:49:00 PM 50.6940 9.7104 229° Southwest  Level Estimated
Tue 03:50:00 PM 50.6202 9.5786 229° Southwest  Level Estimated
Tue 03:51:00 PM 50.5461 9.4472 228° Southwest  Level Estimated
Tue 03:52:00 PM 50.4720 9.3162 228° Southwest  Level Estimated
Tue 03:53:00 PM 50.3977 9.1856 228° Southwest  Level Estimated
Tue 03:54:00 PM 50.3232 9.0555 228° Southwest  Level Estimated
Tue 03:55:00 PM 50.2486 8.9257 228° Southwest  Level Estimated
Tue 03:56:00 PM 50.1739 8.7964 228° Southwest  Level Estimated
Tue 03:57:00 PM 50.0990 8.6674 228° Southwest  Level Estimated
Tue 03:58:00 PM 50.0264 8.5431 228° Southwest  Level Estimated
Tue 03:59:00 PM 50.0264 8.5431 73° East  Level Estimated
Tue 04:00:00 PM 50.0264 8.5431 73° East  Level Estimated
Tue 04:01:00 PM 50.0264 8.5431 73° East  Level Estimated
Tue 04:02:00 PM 50.0264 8.5431 73° East  Level Estimated
Tue 04:03:00 PM 50.0264 8.5431 73° East  Level Estimated
Tue 04:04:00 PM 50.0264 8.5431 73° East  Level Estimated
Tue 04:05:00 PM 50.0264 8.5431 73° East  Level Estimated
Tue 04:06:00 PM 50.0264 8.5431 73° East  Level Estimated
Tue 04:07:00 PM 50.0264 8.5431 73° East  Level Estimated
Tue 04:08:00 PM 50.0264 8.5431 73° East  Level Estimated
Tue 04:09:00 PM 50.0264 8.5431 73° East  Level Estimated
Tue 04:10:00 PM 50.0264 8.5431 73° East  Level Estimated
Tue 04:11:00 PM 50.0264 8.5431 73° East  Level Estimated
Tue 04:12:00 PM 50.0264 8.5431 73° East  Level Estimated
Tue 04:13:00 PM 50.0264 8.5431 73° East  Level Estimated
Tue 04:14:00 PM 50.0264 8.5431 73° East  Level Estimated

Login

Don't have an account? Register now (free) for customized features, flight alerts, and more!